Time,TemperatureF,DewpointF,PressureIn,WindDirection,WindDirectionDegrees,WindSpeedMPH,WindSpeedGustMPH,Humidity,HourlyPrecipIn,Conditions,Clouds,dailyrainin,SolarRadiationWatts/m^2,SoftwareType,DateUTC
2013-11-01 00:00:00,73.1,68.0,30.00,NW,315,0.0,0.0,84,0.00,,---,0.00,0.00,VWS V14.01,2013-11-01 04:00:00,
2013-11-01 01:00:00,72.6,68.2,30.01,NW,315,0.0,0.0,86,0.00,,---,0.00,0.00,VWS V14.01,2013-11-01 05:00:00,
2013-11-01 02:00:00,72.2,68.4,29.99,ESE,112,0.0,2.0,88,0.00,,---,0.00,0.00,VWS V14.01,2013-11-01 06:00:00,
2013-11-01 03:00:00,70.4,68.0,29.98,SE,135,0.0,1.0,92,0.00,,---,0.00,0.00,VWS V14.01,2013-11-01 07:00:00,
2013-11-01 04:00:00,70.4,68.3,29.97,SE,135,0.0,2.0,93,0.00,,---,0.00,0.00,VWS V14.01,2013-11-01 08:00:00,
2013-11-01 05:00:00,70.3,68.2,29.96,South,180,0.0,3.0,93,0.00,,---,0.00,0.00,VWS V14.01,2013-11-01 09:00:00,
2013-11-01 06:00:00,69.5,67.7,29.97,SSE,158,0.0,3.0,94,0.00,,---,0.00,0.00,VWS V14.01,2013-11-01 10:00:00,
2013-11-01 07:00:00,69.1,67.3,29.97,SSE,158,0.0,1.0,94,0.00,,---,0.00,0.00,VWS V14.01,2013-11-01 11:00:00,
2013-11-01 08:00:00,68.0,66.5,29.97,SSE,158,0.0,1.0,95,0.00,,---,0.00,0.00,VWS V14.01,2013-11-01 12:00:00,
2013-11-01 09:00:00,69.6,68.4,29.97,South,180,0.0,3.0,96,0.00,,---,0.00,14.00,VWS V14.01,2013-11-01 13:00:00,
2013-11-01 10:00:00,75.6,71.5,29.98,South,180,2.0,7.0,87,0.00,,---,0.00,73.00,VWS V14.01,2013-11-01 14:00:00,
2013-11-01 11:00:00,79.0,71.6,29.97,SW,225,4.0,13.0,78,0.00,,---,0.00,198.00,VWS V14.01,2013-11-01 15:00:00,
2013-11-01 12:00:00,82.2,70.6,29.96,SW,225,5.0,14.0,68,0.00,,---,0.00,540.00,VWS V14.01,2013-11-01 16:00:00,
2013-11-01 13:00:00,84.3,72.6,29.95,SW,225,6.0,17.0,68,0.00,,---,0.00,661.00,VWS V14.01,2013-11-01 17:00:00,
2013-11-01 14:00:00,85.3,72.7,29.93,SW,225,6.0,14.0,66,0.00,,---,0.00,649.00,VWS V14.01,2013-11-01 18:00:00,
2013-11-01 15:00:00,86.2,71.7,29.91,SW,225,5.0,14.0,62,0.00,,---,0.00,738.00,VWS V14.01,2013-11-01 19:00:00,
2013-11-01 16:00:00,84.1,72.8,29.90,WSW,248,4.0,16.0,69,0.00,,---,0.00,531.00,VWS V14.01,2013-11-01 20:00:00,
2013-11-01 17:00:00,84.5,73.2,29.89,SW,225,4.0,14.0,69,0.00,,---,0.00,211.00,VWS V14.01,2013-11-01 21:00:00,
2013-11-01 18:00:00,82.9,73.4,29.89,WSW,248,3.0,11.0,73,0.00,,---,0.00,105.00,VWS V14.01,2013-11-01 22:00:00,
2013-11-01 19:00:00,80.7,73.2,29.89,SW,225,3.0,11.0,78,0.00,,---,0.00,47.00,VWS V14.01,2013-11-01 23:00:00,
2013-11-01 20:00:00,78.5,73.6,29.89,SW,225,3.0,8.0,85,0.00,,---,0.00,4.00,VWS V14.01,2013-11-02 00:00:00,
2013-11-01 21:00:00,77.8,73.3,29.90,SW,225,3.0,10.0,86,0.00,,---,0.00,0.00,VWS V14.01,2013-11-02 01:00:00,
2013-11-01 22:00:00,77.4,73.2,29.90,SW,225,3.0,10.0,87,0.00,,---,0.00,0.00,VWS V14.01,2013-11-02 02:00:00,
2013-11-01 23:00:00,76.9,73.1,29.90,SW,225,3.0,10.0,88,0.00,,---,0.00,0.00,VWS V14.01,2013-11-02 03:00:00,